Time;durP1;ratioP1;P1;durP2;ratioP2;P2;SDS_P1;SDS_P2;PMS_P1;PMS_P2;Temp;Humidity;BMP_temperature;BMP_pressure;BME280_temperature;BME280_humidity;BME280_pressure;Samples;Min_cycle;Max_cycle;Signal;HPM_P1;HPM_P2
2021/12/30 00:01:04;;;;;;;9.70;8.70;;;;;;;19.57;47.74;100991.72;5015113;28;20465;-83
2021/12/30 00:03:32;;;;;;;9.77;8.65;;;;;;;19.57;47.72;100994.41;5015988;28;20054;-83
2021/12/30 00:05:59;;;;;;;9.40;8.55;;;;;;;19.57;47.47;101004.25;5014391;28;20104;-83
2021/12/30 00:08:27;;;;;;;10.77;8.93;;;;;;;19.57;47.30;100994.41;4998252;28;20064;-83
2021/12/30 00:10:56;;;;;;;9.93;8.93;;;;;;;19.57;47.19;100990.84;5015257;28;20050;-84
2021/12/30 00:13:23;;;;;;;10.38;8.90;;;;;;;19.57;47.09;100985.47;5015988;28;20062;-84
2021/12/30 00:15:51;;;;;;;10.75;9.20;;;;;;;19.58;47.17;100992.56;5016105;28;20054;-83
2021/12/30 00:18:19;;;;;;;11.70;8.95;;;;;;;19.57;46.86;100997.09;5015903;28;20045;-82
2021/12/30 00:20:47;;;;;;;9.38;8.45;;;;;;;19.58;46.97;101004.16;5014231;28;20061;-82
2021/12/30 00:23:15;;;;;;;10.02;9.00;;;;;;;19.59;46.71;101018.44;5018744;28;20113;-83
2021/12/30 00:25:42;;;;;;;10.32;9.20;;;;;;;19.58;46.80;101014.91;5015918;28;20068;-83
2021/12/30 00:28:16;;;;;;;10.25;9.15;;;;;;;19.58;46.71;101012.22;5015327;28;20046;-83
2021/12/30 00:30:45;;;;;;;9.60;7.63;;;;;;;19.58;46.74;101009.53;5013565;28;20065;-82
2021/12/30 00:33:14;;;;;;;9.88;8.32;;;;;;;19.59;46.80;101019.28;5015037;28;20045;-83
2021/12/30 00:35:47;;;;;;;8.73;7.80;;;;;;;19.58;46.51;101012.22;5015606;28;20486;-82
2021/12/30 00:38:15;;;;;;;11.40;8.02;;;;;;;19.60;46.47;101020.97;5013441;28;20061;-82
2021/12/30 00:40:42;;;;;;;10.10;8.63;;;;;;;19.59;46.62;101010.38;5014773;28;20053;-82
2021/12/30 00:43:10;;;;;;;9.23;8.32;;;;;;;19.60;46.39;101012.91;5015660;28;20505;-82
2021/12/30 00:45:38;;;;;;;9.30;8.18;;;;;;;19.61;46.18;101006.63;5015661;28;20057;-82
2021/12/30 00:48:07;;;;;;;9.18;8.30;;;;;;;19.61;46.34;101017.38;5015720;28;20053;-82
2021/12/30 00:50:40;;;;;;;10.48;8.75;;;;;;;19.62;46.36;101018.22;5015443;28;20046;-83
2021/12/30 00:53:09;;;;;;;;;;;;;;;19.61;46.48;101022.75;5014494;28;20081;-83
2021/12/30 00:55:37;;;;;;;9.23;8.32;;;;;;;19.62;46.49;101023.59;5015217;28;20336;-83
2021/12/30 00:58:08;;;;;;;9.73;8.73;;;;;;;19.62;46.34;101027.13;5014366;28;20049;-83
2021/12/30 01:00:39;;;;;;;9.85;8.85;;;;;;;19.63;46.43;101028.81;5015321;28;20406;-83
2021/12/30 01:03:07;;;;;;;8.80;8.00;;;;;;;19.64;46.39;101021.59;5015004;28;20048;-83
2021/12/30 01:05:38;;;;;;;10.45;8.55;;;;;;;19.64;46.34;101026.97;5014645;28;20056;-84
2021/12/30 01:08:07;;;;;;;8.82;7.90;;;;;;;19.64;46.27;101014.41;5015981;28;20061;-84
2021/12/30 01:10:36;;;;;;;8.48;7.65;;;;;;;19.66;46.30;101022.34;5016821;28;20049;-83
2021/12/30 01:13:07;;;;;;;8.45;7.53;;;;;;;19.66;46.08;101020.50;5017353;28;20359;-83
2021/12/30 01:18:55;;;;;;;9.65;8.65;;;;;;;19.69;46.03;101025.63;5013747;28;20049;-84
2021/12/30 01:21:25;;;;;;;9.40;8.50;;;;;;;19.70;46.00;101031.84;5012510;28;20057;-84
2021/12/30 01:23:56;;;;;;;9.65;8.65;;;;;;;19.72;46.08;101040.63;5022904;28;20037;-83
2021/12/30 01:26:24;;;;;;;10.00;8.35;;;;;;;19.73;46.16;101042.34;5014696;28;20060;-83
2021/12/30 01:28:52;;;;;;;8.98;7.97;;;;;;;19.73;45.92;101045.03;5015158;28;20042;-83
2021/12/30 01:31:22;;;;;;;10.05;8.90;;;;;;;19.75;45.93;101040.38;5012420;28;20061;-85
2021/12/30 01:34:09;;;;;;;9.38;8.45;;;;;;;19.74;45.92;101044.88;5013859;28;20054;-84
2021/12/30 01:36:36;;;;;;;9.60;8.70;;;;;;;19.75;45.74;101051.97;5013695;28;20065;-85
2021/12/30 01:39:04;;;;;;;9.30;8.40;;;;;;;19.76;46.04;101067.09;5013087;28;20041;-85
2021/12/30 01:41:31;;;;;;;9.25;8.25;;;;;;;19.78;45.69;101076.88;5015317;28;20053;-85
2021/12/30 01:43:59;;;;;;;8.95;8.07;;;;;;;19.78;45.93;101069.66;5014390;28;20053;-85
2021/12/30 01:46:40;;;;;;;9.43;8.52;;;;;;;19.78;45.96;101058.06;5016067;28;20061;-82
2021/12/30 01:49:09;;;;;;;9.32;8.43;;;;;;;19.79;45.88;101066.00;5012819;28;20064;-83
2021/12/30 01:51:37;;;;;;;9.18;8.27;;;;;;;19.80;45.77;101061.47;5012487;28;20042;-84
2021/12/30 01:54:05;;;;;;;8.45;7.63;;;;;;;19.81;46.01;101069.41;4995970;28;20050;-83
2021/12/30 01:56:33;;;;;;;9.70;8.40;;;;;;;19.82;45.93;101065.75;5013613;28;20062;-83
2021/12/30 01:59:02;;;;;;;9.02;8.13;;;;;;;19.82;45.98;101062.19;5011727;28;20045;-83
2021/12/30 02:01:30;;;;;;;9.65;8.63;;;;;;;19.82;45.94;101056.84;5012180;28;20054;-83
2021/12/30 02:03:58;;;;;;;9.15;8.20;;;;;;;19.83;45.96;101063.91;5012668;28;20053;-83
2021/12/30 02:06:25;;;;;;;8.43;7.63;;;;;;;19.82;45.95;101083.69;5013283;28;20050;-83
2021/12/30 02:08:54;;;;;;;8.77;7.88;;;;;;;19.83;45.86;101088.06;5013506;28;20499;-83
2021/12/30 02:11:22;;;;;;;9.05;8.05;;;;;;;19.83;45.91;101098.81;5013540;28;20042;-83
2021/12/30 02:13:51;;;;;;;9.75;8.50;;;;;;;19.82;45.86;101099.81;5013342;28;20062;-83
2021/12/30 02:16:20;;;;;;;8.82;8.00;;;;;;;19.83;46.12;101097.00;5012505;28;20049;-82
2021/12/30 02:18:49;;;;;;;8.48;7.65;;;;;;;19.83;46.09;101104.19;5012506;28;20053;-81
2021/12/30 02:21:17;;;;;;;8.68;7.78;;;;;;;19.82;46.24;101113.25;5012158;28;20060;-82
2021/12/30 02:23:47;;;;;;;8.75;7.95;;;;;;;19.82;46.11;101116.78;5011535;28;20056;-82
2021/12/30 02:26:18;;;;;;;8.77;7.93;;;;;;;19.82;45.93;101124.00;5024543;28;20053;-82
2021/12/30 02:28:46;;;;;;;9.15;8.25;;;;;;;19.82;46.12;101127.53;5033348;28;20115;-82
2021/12/30 02:31:19;;;;;;;8.27;7.47;;;;;;;19.81;46.28;101109.72;5033509;28;20045;-81
2021/12/30 02:33:47;;;;;;;8.88;8.07;;;;;;;19.81;45.96;101116.88;5031572;28;20128;-82
2021/12/30 02:36:32;;;;;;;9.15;8.25;;;;;;;19.81;46.11;101108.84;5032683;28;20046;-81
2021/12/30 02:39:03;;;;;;;9.35;8.45;;;;;;;19.82;46.04;101106.03;5032843;28;20053;-81
2021/12/30 02:41:35;;;;;;;8.82;7.93;;;;;;;19.82;45.88;101111.41;5032677;28;20072;-82
2021/12/30 02:44:04;;;;;;;9.27;8.00;;;;;;;19.83;45.87;101114.94;5032812;28;20049;-82
2021/12/30 02:46:34;;;;;;;8.82;7.93;;;;;;;19.83;46.02;101117.63;5032908;28;20050;-82
2021/12/30 02:49:02;;;;;;;9.80;8.80;;;;;;;19.84;45.85;101124.69;5032697;28;20473;-82
2021/12/30 02:51:30;;;;;;;8.75;7.85;;;;;;;19.84;45.97;101113.97;5032711;28;20401;-82
2021/12/30 02:53:58;;;;;;;8.80;8.00;;;;;;;19.84;45.92;101116.63;5032804;28;20052;-83
2021/12/30 02:56:28;;;;;;;8.45;7.65;;;;;;;19.83;45.96;101115.78;5033506;28;20120;-83
2021/12/30 02:58:55;;;;;;;8.77;7.88;;;;;;;19.84;45.96;101108.59;5033180;28;20052;-83
2021/12/30 03:01:28;;;;;;;9.18;8.27;;;;;;;19.85;45.94;101100.41;5033916;28;20076;-83
2021/12/30 03:03:57;;;;;;;9.13;8.23;;;;;;;19.84;45.81;101082.56;5034289;28;20045;-83
2021/12/30 03:06:25;;;;;;;9.52;8.63;;;;;;;19.85;45.65;101099.53;5035588;28;20060;-83
2021/12/30 03:08:53;;;;;;;9.20;8.30;;;;;;;19.84;45.87;101103.22;5018625;28;20038;-81
2021/12/30 03:11:24;;;;;;;9.27;8.38;;;;;;;19.84;45.55;101114.81;5014390;28;20413;-81
2021/12/30 03:13:53;;;;;;;9.80;8.80;;;;;;;19.85;45.69;101131.78;5013381;28;20062;-82
2021/12/30 03:16:28;;;;;;;9.15;8.25;;;;;;;19.84;45.81;101109.44;5012975;28;20078;-82
2021/12/30 03:18:57;;;;;;;9.45;8.45;;;;;;;19.84;45.80;101120.19;5011847;28;20042;-82
2021/12/30 03:21:26;;;;;;;9.85;8.85;;;;;;;19.85;45.67;101139.84;5014751;28;20049;-82
2021/12/30 03:23:57;;;;;;;8.80;8.00;;;;;;;19.84;45.98;101143.50;5015366;28;20069;-82
2021/12/30 03:26:25;;;;;;;9.43;8.40;;;;;;;19.84;45.64;101136.31;5026833;28;20061;-81
2021/12/30 03:28:52;;;;;;;9.43;8.52;;;;;;;19.83;45.71;101134.59;5014311;28;20378;-81
2021/12/30 03:31:21;;;;;;;9.50;8.50;;;;;;;19.84;45.67;101136.31;5016449;28;20050;-82
2021/12/30 03:33:49;;;;;;;9.48;8.18;;;;;;;19.84;45.75;101146.19;5016327;28;20404;-81
2021/12/30 03:36:18;;;;;;;9.73;8.82;;;;;;;19.84;45.59;101173.91;5016007;28;20046;-82
2021/12/30 03:38:49;;;;;;;9.32;8.23;;;;;;;19.83;45.56;101161.47;5016547;28;20137;-82
2021/12/30 03:41:20;;;;;;;9.07;8.18;;;;;;;19.83;45.73;101150.72;5015046;28;20041;-82
2021/12/30 03:43:47;;;;;;;8.98;8.07;;;;;;;19.83;45.64;101144.50;5016169;28;20394;-82
2021/12/30 03:46:15;;;;;;;9.27;8.35;;;;;;;19.82;45.66;101151.72;5016074;28;20045;-82
2021/12/30 03:48:44;;;;;;;9.25;8.35;;;;;;;19.83;45.63;101149.88;5015703;28;20049;-82
2021/12/30 03:51:20;;;;;;;9.90;8.93;;;;;;;19.81;45.76;101147.31;5016301;28;20053;-82
2021/12/30 03:53:50;;;;;;;9.77;8.77;;;;;;;19.82;45.72;101145.50;5015942;28;20053;-82
2021/12/30 03:56:22;;;;;;;9.60;8.60;;;;;;;19.81;45.69;101165.25;5015762;28;20045;-82
2021/12/30 03:58:49;;;;;;;8.73;7.82;;;;;;;19.80;45.83;101179.66;5015832;28;20106;-82
2021/12/30 04:01:20;;;;;;;9.60;8.70;;;;;;;19.80;45.81;101179.66;5015659;28;20465;-80
2021/12/30 04:03:49;;;;;;;9.80;8.70;;;;;;;19.79;46.04;101184.19;5015910;28;20054;-82
2021/12/30 04:06:16;;;;;;;9.65;8.70;;;;;;;19.79;45.89;101191.41;5015447;28;20045;-81
2021/12/30 04:08:44;;;;;;;9.93;8.70;;;;;;;19.79;45.96;101204.84;5015258;28;20050;-80
2021/12/30 04:11:12;;;;;;;8.70;7.90;;;;;;;19.78;45.96;101195.94;5014103;28;20053;-81
2021/12/30 04:13:39;;;;;;;9.85;8.75;;;;;;;19.76;45.71;101187.97;5015442;28;20053;-82
2021/12/30 04:16:07;;;;;;;10.02;9.02;;;;;;;19.76;45.91;101196.03;5013845;28;20517;-82
2021/12/30 04:18:34;;;;;;;9.90;8.90;;;;;;;19.76;46.00;101200.56;5015262;28;20045;-82
2021/12/30 04:21:02;;;;;;;10.20;9.10;;;;;;;19.75;46.11;101202.38;5014242;28;20058;-83
2021/12/30 04:23:30;;;;;;;9.68;8.75;;;;;;;19.74;46.15;101219.50;5014354;28;20050;-83
2021/12/30 04:25:57;;;;;;;10.50;8.98;;;;;;;19.75;45.93;101209.59;5021731;28;20052;-83
2021/12/30 04:28:25;;;;;;;9.63;8.63;;;;;;;19.72;46.04;101213.38;5022213;28;20046;-83
2021/12/30 04:30:52;;;;;;;10.38;9.38;;;;;;;19.73;46.01;101207.06;5014585;28;20050;-83
2021/12/30 04:33:20;;;;;;;10.20;9.20;;;;;;;19.73;46.11;101220.47;5015343;28;20042;-82
2021/12/30 04:35:49;;;;;;;11.20;10.00;;;;;;;19.73;46.02;101211.56;5013491;28;20046;-81
2021/12/30 04:38:17;;;;;;;10.45;9.30;;;;;;;19.72;45.93;101228.66;5014690;28;20053;-81
2021/12/30 04:40:44;;;;;;;9.88;8.85;;;;;;;19.71;45.88;101227.81;5014851;28;20045;-81
2021/12/30 04:43:12;;;;;;;9.77;8.60;;;;;;;19.72;45.96;101240.25;5014864;28;20050;-82
2021/12/30 04:45:39;;;;;;;9.73;8.73;;;;;;;19.70;45.92;101244.91;5014763;28;20054;-83
2021/12/30 04:48:07;;;;;;;10.55;9.45;;;;;;;19.72;46.04;101250.13;5015161;28;20045;-82
2021/12/30 04:50:34;;;;;;;11.40;10.13;;;;;;;19.71;45.88;101245.75;5015032;28;20041;-83
2021/12/30 04:53:02;;;;;;;10.85;9.75;;;;;;;19.70;46.08;101244.91;5013800;28;20046;-82
2021/12/30 04:55:30;;;;;;;11.45;10.02;;;;;;;19.70;46.03;101252.97;5013821;28;20045;-82
2021/12/30 04:57:57;;;;;;;10.77;9.68;;;;;;;19.70;45.86;101252.97;5014607;28;20053;-83
2021/12/30 05:00:25;;;;;;;10.35;9.45;;;;;;;19.70;45.96;101249.44;5014747;28;20046;-82
2021/12/30 05:05:40;;;;;;;10.18;9.13;;;;;;;19.69;45.89;101267.38;5015104;28;20049;-83
2021/12/30 05:08:08;;;;;;;10.52;9.43;;;;;;;19.70;46.11;101269.06;5013995;28;20053;-83
2021/12/30 05:10:36;;;;;;;11.05;9.95;;;;;;;19.69;46.04;101259.31;5013244;28;20050;-82
2021/12/30 05:13:05;;;;;;;10.80;9.75;;;;;;;19.70;45.97;101265.53;5014899;28;20417;-83
2021/12/30 05:15:34;;;;;;;10.77;9.68;;;;;;;19.70;45.67;101273.59;5014576;28;20041;-82
2021/12/30 05:18:04;;;;;;;10.57;9.40;;;;;;;19.70;45.32;101274.44;5014130;28;20053;-81
2021/12/30 05:20:31;;;;;;;10.35;9.35;;;;;;;19.70;45.58;101274.44;5012826;28;20054;-81
2021/12/30 05:22:59;;;;;;;10.82;9.73;;;;;;;19.71;45.51;101275.31;5014001;28;20429;-81
2021/12/30 05:25:27;;;;;;;11.05;9.90;;;;;;;19.71;45.47;101283.34;5014143;28;20404;-82
2021/12/30 05:27:54;;;;;;;10.93;9.70;;;;;;;19.72;45.39;101274.31;5022181;28;20046;-83
2021/12/30 05:30:22;;;;;;;10.63;9.52;;;;;;;19.73;45.63;101279.59;5013746;28;20042;-83
2021/12/30 05:32:52;;;;;;;10.90;9.80;;;;;;;19.73;45.68;101281.41;5014122;28;20042;-83
2021/12/30 05:35:20;;;;;;;10.95;9.85;;;;;;;19.73;45.64;101268.84;5014472;28;20100;-84
2021/12/30 05:37:49;;;;;;;12.10;10.85;;;;;;;19.73;45.58;101268.84;5014399;28;20072;-82
2021/12/30 05:40:19;;;;;;;11.63;9.98;;;;;;;19.72;45.61;101272.47;5014127;28;20038;-82
2021/12/30 05:42:47;;;;;;;11.30;10.18;;;;;;;19.72;45.46;101283.22;5013537;28;20485;-82
2021/12/30 05:45:16;;;;;;;11.15;9.82;;;;;;;19.73;45.37;101276.91;5012337;28;20050;-83
2021/12/30 05:47:46;;;;;;;11.15;10.05;;;;;;;19.74;45.49;101275.06;5013827;28;20052;-82
2021/12/30 05:50:17;;;;;;;11.02;9.82;;;;;;;19.73;45.71;101281.41;5013647;28;20050;-82
2021/12/30 05:52:46;;;;;;;12.13;10.90;;;;;;;19.73;45.47;101302.91;5013653;28;20053;-82
2021/12/30 05:55:14;;;;;;;11.70;10.50;;;;;;;19.72;45.70;101312.78;5013623;28;20058;-83
2021/12/30 05:57:42;;;;;;;11.27;9.43;;;;;;;19.73;45.68;101329.78;5013762;28;20053;-82
2021/12/30 06:00:13;;;;;;;11.95;10.38;;;;;;;19.72;45.61;101338.78;5013655;28;20474;-82
2021/12/30 06:02:41;;;;;;;11.57;10.30;;;;;;;19.71;45.70;101339.78;5012279;28;20058;-83
2021/12/30 06:05:09;;;;;;;11.57;10.20;;;;;;;19.70;45.69;101341.59;5013414;28;20045;-84
2021/12/30 06:07:36;;;;;;;11.10;9.88;;;;;;;19.69;45.68;101345.28;5013585;28;20050;-83
2021/12/30 06:10:04;;;;;;;11.25;10.13;;;;;;;19.69;45.78;101345.28;5013238;28;20042;-83
2021/12/30 06:12:33;;;;;;;11.02;9.93;;;;;;;19.69;45.89;101357.84;5013648;28;20064;-83
2021/12/30 06:15:01;;;;;;;12.50;11.20;;;;;;;19.68;45.76;101358.81;5013795;28;20058;-82
2021/12/30 06:17:28;;;;;;;11.60;10.48;;;;;;;19.68;45.86;101356.13;5012194;28;20046;-82
2021/12/30 06:19:56;;;;;;;11.40;10.13;;;;;;;19.68;45.92;101365.03;5013153;28;20041;-83
2021/12/30 06:22:23;;;;;;;11.50;9.68;;;;;;;19.67;45.98;101363.34;5013593;28;20064;-82
2021/12/30 06:24:51;;;;;;;11.10;9.98;;;;;;;19.67;45.94;101363.34;5013650;28;20049;-82
2021/12/30 06:27:18;;;;;;;10.93;9.82;;;;;;;19.68;45.87;101364.19;5013659;28;20065;-82
2021/12/30 06:29:45;;;;;;;11.38;10.18;;;;;;;19.66;45.81;101367.00;5015769;28;20045;-82
2021/12/30 06:32:13;;;;;;;11.05;9.50;;;;;;;19.66;45.91;101364.31;5013117;28;20053;-83
2021/12/30 06:34:40;;;;;;;10.75;9.65;;;;;;;19.65;45.93;101368.00;5013877;28;20053;-82
2021/12/30 06:37:07;;;;;;;10.10;9.07;;;;;;;19.66;45.76;101376.91;5013702;28;20050;-82
2021/12/30 06:39:35;;;;;;;12.10;9.85;;;;;;;19.66;45.72;101382.25;5013372;28;20069;-84
2021/12/30 06:42:02;;;;;;;11.57;10.38;;;;;;;19.66;45.79;101404.59;5012018;28;20049;-83
2021/12/30 06:44:30;;;;;;;10.85;9.75;;;;;;;19.65;45.71;101380.56;5013085;28;20046;-83
2021/12/30 06:47:00;;;;;;;11.18;9.30;;;;;;;19.65;45.70;101402.91;5013330;28;20057;-82
2021/12/30 06:49:35;;;;;;;10.90;9.82;;;;;;;19.66;45.65;101411.81;5013300;28;20520;-82
2021/12/30 06:52:06;;;;;;;11.70;10.50;;;;;;;19.65;45.84;101415.47;5013185;28;20053;-83
2021/12/30 06:54:33;;;;;;;10.93;9.73;;;;;;;19.65;45.87;101418.16;5012200;28;20042;-83
2021/12/30 06:57:03;;;;;;;11.38;9.30;;;;;;;19.65;45.45;101426.22;5016370;28;20046;-83
2021/12/30 06:59:30;;;;;;;12.13;9.90;;;;;;;19.64;45.57;101430.72;5016898;28;20050;-83
2021/12/30 07:01:58;;;;;;;10.13;8.63;;;;;;;19.64;45.59;101443.28;5017009;28;20042;-83
2021/12/30 07:04:27;;;;;;;10.82;9.63;;;;;;;19.65;45.60;101450.41;5016949;28;20041;-82
2021/12/30 07:06:54;;;;;;;10.25;9.25;;;;;;;19.64;45.38;101459.41;5015767;28;20057;-83
2021/12/30 07:09:21;;;;;;;10.30;9.07;;;;;;;19.65;45.54;101453.94;5016846;28;20049;-84
2021/12/30 07:11:52;;;;;;;10.45;9.38;;;;;;;19.63;45.57;101437.06;5016354;28;20401;-84
2021/12/30 07:14:21;;;;;;;10.98;9.07;;;;;;;19.65;45.64;101453.94;5016444;28;20520;-85
2021/12/30 07:16:48;;;;;;;10.10;9.10;;;;;;;19.65;45.70;101475.44;5016367;28;20156;-83
2021/12/30 07:19:16;;;;;;;10.18;9.00;;;;;;;19.65;45.75;101470.06;5015427;28;20046;-84
2021/12/30 07:21:44;;;;;;;10.45;9.40;;;;;;;19.64;45.58;101468.31;5016507;28;20042;-84
2021/12/30 07:24:11;;;;;;;9.63;8.63;;;;;;;19.65;45.72;101490.69;5016856;28;20049;-84
2021/12/30 07:26:39;;;;;;;10.55;9.10;;;;;;;19.65;45.92;101499.59;5017480;28;20052;-84
2021/12/30 07:29:06;;;;;;;10.27;8.82;;;;;;;19.64;45.63;101500.56;5019797;28;20046;-84
2021/12/30 07:31:34;;;;;;;9.23;8.25;;;;;;;19.64;45.54;101491.66;5017574;28;20053;-84
2021/12/30 07:34:01;;;;;;;10.90;8.35;;;;;;;19.63;45.82;101487.25;5019036;28;20045;-85
2021/12/30 07:36:29;;;;;;;9.07;8.18;;;;;;;19.62;45.61;101489.09;5019222;28;20046;-85
2021/12/30 07:38:56;;;;;;;9.15;8.07;;;;;;;19.62;45.81;101507.88;5016266;28;20050;-82
2021/12/30 07:41:24;;;;;;;9.95;8.70;;;;;;;19.62;45.30;101512.41;5016440;28;20046;-82
2021/12/30 07:43:51;;;;;;;10.23;8.48;;;;;;;19.62;45.23;101510.56;5016749;28;20049;-82
2021/12/30 07:46:18;;;;;;;9.32;8.32;;;;;;;19.62;45.35;101523.16;5016268;28;20056;-82
2021/12/30 07:48:46;;;;;;;9.30;8.30;;;;;;;19.63;45.44;101530.22;5016176;28;20046;-82
2021/12/30 07:51:13;;;;;;;10.68;8.63;;;;;;;19.63;45.09;101524.84;5016332;28;20053;-81
2021/12/30 07:53:41;;;;;;;9.75;8.75;;;;;;;19.63;45.22;101531.09;5015677;28;20530;-82
2021/12/30 07:56:08;;;;;;;9.52;8.52;;;;;;;19.63;45.34;101538.28;5015779;28;20042;-82
2021/12/30 07:58:36;;;;;;;9.75;8.57;;;;;;;19.62;45.20;101544.66;5014837;28;20050;-82
2021/12/30 08:01:03;;;;;;;9.40;8.40;;;;;;;19.62;45.18;101548.19;5015785;28;20053;-82
2021/12/30 08:03:31;;;;;;;8.45;7.65;;;;;;;19.63;45.22;101541.81;5015622;28;20477;-82
2021/12/30 08:05:58;;;;;;;9.63;8.43;;;;;;;19.62;45.13;101529.38;5015582;28;20053;-82
2021/12/30 08:08:26;;;;;;;9.40;8.30;;;;;;;19.62;45.27;101534.75;5015780;28;20405;-82
2021/12/30 08:10:54;;;;;;;9.77;8.27;;;;;;;19.62;45.09;101545.50;5015304;28;20516;-83
2021/12/30 08:13:23;;;;;;;9.82;8.65;;;;;;;19.62;45.37;101528.53;5015245;28;20053;-82
2021/12/30 08:15:51;;;;;;;9.15;8.20;;;;;;;19.60;45.24;101536.66;5015483;28;20046;-84
2021/12/30 08:18:18;;;;;;;8.23;7.43;;;;;;;19.61;44.98;101540.22;5015402;28;20057;-83
2021/12/30 08:20:46;;;;;;;9.55;8.02;;;;;;;19.60;45.20;101530.44;5016007;28;20053;-83
2021/12/30 08:23:13;;;;;;;9.18;8.32;;;;;;;19.60;44.97;101525.91;5014671;28;20061;-84
2021/12/30 08:25:41;;;;;;;10.73;8.57;;;;;;;19.60;45.01;101536.66;5015404;28;20042;-83
2021/12/30 08:28:08;;;;;;;9.18;8.23;;;;;;;19.59;45.21;101540.31;5015477;28;20065;-84
2021/12/30 08:30:35;;;;;;;9.80;7.90;;;;;;;19.59;45.06;101547.53;5020474;28;20660;-84
2021/12/30 08:33:03;;;;;;;9.88;8.80;;;;;;;19.59;45.20;101552.88;5032852;28;20042;-84
2021/12/30 08:35:30;;;;;;;9.27;8.38;;;;;;;19.58;44.88;101552.03;5035302;28;20045;-84
2021/12/30 08:37:57;;;;;;;8.73;7.82;;;;;;;19.58;45.12;101554.72;5034457;28;20049;-84
2021/12/30 08:40:25;;;;;;;8.13;7.40;;;;;;;19.58;45.03;101565.47;5035148;28;20060;-84
2021/12/30 08:42:53;;;;;;;8.77;7.88;;;;;;;19.57;44.95;101562.88;5035197;28;20038;-84
2021/12/30 08:45:20;;;;;;;8.40;7.47;;;;;;;19.57;44.99;101561.06;5035339;28;20054;-84
2021/12/30 08:47:48;;;;;;;9.40;8.50;;;;;;;19.57;45.05;101561.06;5035951;28;20053;-83
2021/12/30 08:50:16;;;;;;;9.35;8.13;;;;;;;19.56;45.02;101562.03;5034738;28;20060;-83
2021/12/30 08:52:45;;;;;;;9.38;8.38;;;;;;;19.56;44.98;101571.91;5034831;28;20041;-83
2021/12/30 08:55:14;;;;;;;8.75;7.85;;;;;;;19.56;45.23;101588.03;5033315;28;20054;-83
2021/12/30 08:57:42;;;;;;;8.40;7.57;;;;;;;19.55;45.21;101595.22;5034928;28;20041;-84
2021/12/30 09:00:38;;;;;;;9.10;8.20;;;;;;;19.54;45.20;101593.53;5035163;28;20050;-86
2021/12/30 09:03:05;;;;;;;9.38;8.48;;;;;;;19.53;45.12;101605.25;5032710;28;20050;-84
2021/12/30 09:05:35;;;;;;;8.57;7.70;;;;;;;19.52;45.45;101598.13;5035310;28;20054;-85
2021/12/30 09:08:03;;;;;;;8.80;7.90;;;;;;;19.51;45.23;101599.97;5032683;28;20394;-85
2021/12/30 09:10:37;;;;;;;8.40;7.60;;;;;;;19.51;45.47;101599.97;5033508;28;20037;-84
2021/12/30 09:13:05;;;;;;;9.80;8.10;;;;;;;19.52;44.97;101608.88;5033099;28;20052;-84
2021/12/30 09:15:32;;;;;;;8.98;8.07;;;;;;;19.52;45.39;101620.47;5034210;28;20053;-83
2021/12/30 09:18:01;;;;;;;8.95;8.02;;;;;;;19.53;44.97;101610.63;5033470;28;20065;-83
2021/12/30 09:20:28;;;;;;;13.93;11.07;;;;;;;19.48;42.81;101602.88;5032524;28;20060;-85
2021/12/30 09:22:56;;;;;;;18.13;16.27;;;;;;;18.91;37.41;101613.38;5034800;28;20049;-87
2021/12/30 09:25:25;;;;;;;21.05;18.80;;;;;;;18.19;39.12;101611.22;5033202;28;20571;-85
2021/12/30 09:27:55;;;;;;;21.00;18.63;;;;;;;17.70;39.80;101616.31;5035433;28;20409;-86
2021/12/30 09:30:24;;;;;;;18.98;16.30;;;;;;;17.65;41.21;101618.44;5033409;28;20061;-91
2021/12/30 09:32:54;;;;;;;13.80;11.80;;;;;;;17.86;45.90;101618.88;5017162;28;20118;-83
2021/12/30 09:35:21;;;;;;;12.43;11.13;;;;;;;18.05;47.33;101632.75;5018160;28;20504;-83
2021/12/30 09:37:49;;;;;;;12.77;11.40;;;;;;;18.21;46.63;101636.09;5014154;28;20054;-85
2021/12/30 09:40:18;;;;;;;14.48;12.23;;;;;;;18.33;45.61;101641.59;5014263;28;20497;-90
2021/12/30 09:42:51;;;;;;;15.40;13.52;;;;;;;18.43;44.03;101639.97;5014872;28;20042;-84
2021/12/30 09:45:19;;;;;;;16.83;14.40;;;;;;;18.50;44.03;101628.72;5013527;28;20124;-85
2021/12/30 09:47:51;;;;;;;18.83;14.38;;;;;;;18.57;43.39;101626.47;5014419;28;20046;-85
2021/12/30 09:50:22;;;;;;;17.65;12.15;;;;;;;18.62;44.16;101616.28;5012902;28;20058;-89
2021/12/30 09:52:50;;;;;;;20.38;14.18;;;;;;;18.65;43.48;101612.53;5013053;28;20046;-88
2021/12/30 09:55:18;;;;;;;17.10;14.00;;;;;;;18.70;43.53;101623.81;5015208;28;20054;-88
2021/12/30 09:57:45;;;;;;;18.10;14.55;;;;;;;18.72;42.00;101614.69;5013840;28;20072;-87
2021/12/30 10:00:15;;;;;;;16.90;15.18;;;;;;;18.74;41.66;101623.47;5013452;28;20049;-88
2021/12/30 10:02:44;;;;;;;17.27;13.73;;;;;;;18.75;41.39;101617.13;5013517;28;20058;-88
2021/12/30 10:05:17;;;;;;;16.98;14.98;;;;;;;18.76;41.15;101621.56;4994022;28;20050;-90
2021/12/30 10:07:45;;;;;;;17.60;15.45;;;;;;;18.78;40.74;101624.97;4992937;28;20054;-85
2021/12/30 10:10:32;;;;;;;14.50;13.00;;;;;;;18.80;42.41;101615.97;4993812;28;20050;-83
2021/12/30 10:13:13;;;;;;;13.98;12.45;;;;;;;18.82;43.17;101632.81;4991894;28;20498;-85
2021/12/30 10:15:45;;;;;;;18.30;16.40;;;;;;;18.82;41.26;101646.22;4994070;28;20049;-86
2021/12/30 10:18:14;;;;;;;16.15;12.88;;;;;;;18.83;43.10;101648.78;4993829;28;20050;-86
2021/12/30 10:20:42;;;;;;;15.95;12.77;;;;;;;18.84;43.21;101647.84;4994138;28;20046;-89
2021/12/30 10:23:09;;;;;;;17.50;13.65;;;;;;;18.87;43.06;101652.13;4993339;28;20042;-87
2021/12/30 10:25:41;;;;;;;15.90;12.75;;;;;;;18.89;42.93;101642.16;4994927;28;20042;-84
2021/12/30 10:28:18;;;;;;;16.92;13.98;;;;;;;18.91;43.22;101650.94;5008904;28;20498;-83
2021/12/30 10:30:46;;;;;;;16.35;13.25;;;;;;;18.94;43.11;101651.56;4996653;28;20058;-84
2021/12/30 10:33:25;;;;;;;16.25;12.90;;;;;;;18.96;43.05;101638.06;5018215;28;20405;-84
2021/12/30 10:35:53;;;;;;;14.73;12.80;;;;;;;18.97;43.19;101637.09;5037090;28;20041;-84
2021/12/30 10:38:21;;;;;;;17.13;12.43;;;;;;;18.99;43.21;101648.56;5036592;28;20057;-83
2021/12/30 10:40:53;;;;;;;16.52;13.25;;;;;;;18.99;43.68;101637.81;5037166;28;20053;-84
2021/12/30 10:43:30;;;;;;;17.45;13.18;;;;;;;19.01;43.74;101660.06;5036859;28;20050;-87
2021/12/30 10:46:05;;;;;;;15.52;12.60;;;;;;;19.02;43.87;101653.72;5037592;28;20052;-85
2021/12/30 10:48:34;;;;;;;13.20;11.57;;;;;;;19.03;43.77;101652.75;5036285;28;20400;-84
2021/12/30 10:51:14;;;;;;;13.80;12.07;;;;;;;19.03;43.97;101664.31;5036953;28;20042;-84
2021/12/30 10:53:41;;;;;;;12.30;10.80;;;;;;;19.04;44.05;101667.91;5030313;28;20038;-85
2021/12/30 10:56:19;;;;;;;13.73;11.43;;;;;;;19.04;44.08;101673.25;5017931;28;20050;-84
2021/12/30 10:58:46;;;;;;;15.13;11.65;;;;;;;19.05;43.97;101680.34;5017691;28;20050;-84
2021/12/30 11:01:20;;;;;;;13.27;11.43;;;;;;;19.05;43.91;101677.66;5016161;28;20393;-84
2021/12/30 11:03:57;;;;;;;13.10;10.98;;;;;;;19.05;44.02;101680.34;5016138;28;20050;-85
2021/12/30 11:06:26;;;;;;;12.60;10.82;;;;;;;19.07;43.98;101677.53;5016869;28;20057;-85
2021/12/30 11:09:17;;;;;;;16.83;11.32;;;;;;;19.05;44.30;101683.03;5016960;28;20066;-84
2021/12/30 11:11:48;;;;;;;13.60;11.88;;;;;;;19.06;43.95;101667.78;5016424;28;20050;-85
2021/12/30 11:14:19;;;;;;;12.48;10.95;;;;;;;19.07;44.03;101672.16;5015896;28;20054;-85
2021/12/30 11:17:07;;;;;;;13.90;10.77;;;;;;;19.07;44.21;101667.66;5016478;28;20050;-85
2021/12/30 11:19:39;;;;;;;12.02;10.50;;;;;;;19.08;44.04;101666.72;5016642;28;20046;-84
2021/12/30 11:22:10;;;;;;;13.57;11.27;;;;;;;19.08;44.04;101669.41;5016505;28;20114;-84
2021/12/30 11:24:40;;;;;;;13.00;11.43;;;;;;;19.08;43.94;101666.72;5016141;28;20060;-84
2021/12/30 11:27:10;;;;;;;13.38;11.30;;;;;;;19.08;44.02;101665.81;5016082;28;20485;-84
2021/12/30 11:29:43;;;;;;;12.60;10.88;;;;;;;19.07;44.17;101662.28;5016807;28;20045;-84
2021/12/30 11:32:11;;;;;;;14.18;11.95;;;;;;;19.08;44.00;101655.97;5017105;28;20046;-84
2021/12/30 11:34:39;;;;;;;14.23;10.88;;;;;;;19.08;43.74;101661.34;5030064;28;20041;-84